createdAt,value
2023-04-16T00:00:53.105Z,96.8418
2023-04-16T00:01:53.850Z,96.6474
2023-04-16T00:02:54.657Z,96.5768
2023-04-16T00:03:55.935Z,96.6677
2023-04-16T00:04:56.746Z,96.6991
2023-04-16T00:05:57.358Z,96.7135
2023-04-16T00:06:58.051Z,96.7618
2023-04-16T00:07:58.662Z,96.7685
2023-04-16T00:08:59.323Z,96.7688
2023-04-16T00:10:00.008Z,96.6249
2023-04-16T00:11:00.673Z,96.7241
2023-04-16T00:12:01.332Z,96.7377
2023-04-16T00:13:02.053Z,96.8484
2023-04-16T00:14:02.663Z,96.8667
2023-04-16T00:15:03.332Z,96.9403
2023-04-16T00:16:03.994Z,97.0531
2023-04-16T00:17:04.736Z,96.9329
2023-04-16T00:18:05.459Z,96.7755
2023-04-16T00:19:06.133Z,96.8584
2023-04-16T00:20:06.775Z,96.6172
2023-04-16T00:21:07.441Z,96.1795
2023-04-16T00:22:08.117Z,96.1783
2023-04-16T00:23:08.814Z,96.3815
2023-04-16T00:24:09.451Z,96.4399
2023-04-16T00:25:10.100Z,96.3976
2023-04-16T00:26:10.739Z,96.4009
2023-04-16T00:27:11.722Z,96.3328
2023-04-16T00:28:12.337Z,96.2461
2023-04-16T00:29:13.003Z,96.3547
2023-04-16T00:30:13.623Z,96.3096
2023-04-16T00:31:14.568Z,96.2916
2023-04-16T00:32:15.248Z,96.4491
2023-04-16T00:33:15.900Z,96.5265
2023-04-16T00:34:18.408Z,96.5193
2023-04-16T00:35:19.066Z,96.5982
2023-04-16T00:36:19.943Z,96.7870
2023-04-16T00:37:20.570Z,96.8786
2023-04-16T00:38:21.230Z,96.9055
2023-04-16T00:39:21.999Z,96.8600
2023-04-16T00:40:22.683Z,96.8110
2023-04-16T00:41:23.298Z,96.6743
2023-04-16T00:42:23.994Z,96.6671
2023-04-16T00:43:24.636Z,96.8010
2023-04-16T00:44:25.297Z,96.6427
2023-04-16T00:45:25.956Z,96.6724
2023-04-16T00:46:26.680Z,96.7778
2023-04-16T00:47:27.310Z,96.6708
2023-04-16T00:48:28.017Z,96.6193
2023-04-16T00:49:28.646Z,96.7743
2023-04-16T00:50:29.314Z,96.9002
2023-04-16T00:51:29.997Z,96.8925
2023-04-16T00:52:30.621Z,96.7205
2023-04-16T00:53:31.295Z,96.6653
2023-04-16T00:54:31.959Z,96.4514
2023-04-16T00:55:32.633Z,96.4892
2023-04-16T00:56:33.278Z,96.6563
2023-04-16T00:57:33.981Z,96.7052
2023-04-16T00:58:34.643Z,96.7795
2023-04-16T00:59:35.288Z,96.6953
2023-04-16T01:00:35.933Z,96.5661
2023-04-16T01:01:36.616Z,96.7514
2023-04-16T01:02:37.336Z,96.8554
2023-04-16T01:03:38.179Z,96.7523
2023-04-16T01:04:38.877Z,96.9719
2023-04-16T01:05:39.544Z,96.8059
2023-04-16T01:06:40.260Z,96.8391
2023-04-16T01:07:40.904Z,96.8765
2023-04-16T01:08:41.534Z,96.9380
2023-04-16T01:09:42.208Z,96.9195
2023-04-16T01:10:42.872Z,97.0260
2023-04-16T01:11:43.493Z,97.1954
2023-04-16T01:12:44.130Z,96.9916
2023-04-16T01:13:44.778Z,97.0619
2023-04-16T01:14:45.878Z,97.1921
2023-04-16T01:15:46.530Z,96.9138
2023-04-16T01:16:47.184Z,96.8971
2023-04-16T01:17:47.856Z,96.9303
2023-04-16T01:18:48.483Z,96.9834
2023-04-16T01:19:49.173Z,96.9131
2023-04-16T01:20:49.870Z,96.8286
2023-04-16T01:21:50.550Z,96.5496
2023-04-16T01:22:51.254Z,96.2702
2023-04-16T01:23:51.928Z,96.2949
2023-04-16T01:24:52.666Z,96.3217
2023-04-16T01:25:53.365Z,96.4150
2023-04-16T01:26:54.047Z,96.5923
2023-04-16T01:27:54.728Z,96.6491
2023-04-16T01:28:55.400Z,96.5976
2023-04-16T01:29:56.092Z,96.7690
2023-04-16T01:30:56.799Z,96.6788
2023-04-16T01:31:57.468Z,96.6938
2023-04-16T01:32:58.200Z,96.7943
2023-04-16T01:33:59.118Z,96.8077
2023-04-16T01:34:59.818Z,96.8715
2023-04-16T01:36:00.587Z,97.0180
2023-04-16T01:37:01.419Z,96.9654
2023-04-16T01:38:02.091Z,96.6170
2023-04-16T01:39:02.764Z,96.5041
2023-04-16T01:40:03.453Z,96.7558
2023-04-16T01:41:04.163Z,96.7874
2023-04-16T01:42:04.897Z,96.6958
2023-04-16T01:43:05.603Z,96.7140
2023-04-16T01:44:06.297Z,96.8807
2023-04-16T01:45:06.979Z,96.9710
2023-04-16T01:46:07.682Z,97.0741
2023-04-16T01:47:08.362Z,97.0941
2023-04-16T01:48:09.079Z,96.8443
2023-04-16T01:49:09.949Z,96.8905
2023-04-16T01:50:10.700Z,97.0607
2023-04-16T01:51:11.658Z,97.0156
2023-04-16T01:52:12.331Z,97.0511
2023-04-16T01:53:13.012Z,97.0029
2023-04-16T01:54:13.686Z,96.9864
2023-04-16T01:55:14.404Z,97.0320
2023-04-16T01:56:15.106Z,97.0105
2023-04-16T01:57:15.776Z,97.0646
2023-04-16T01:58:16.439Z,97.1739
2023-04-16T01:59:17.358Z,97.0052
2023-04-16T02:00:18.043Z,96.9301
2023-04-16T02:01:18.809Z,96.9971
2023-04-16T02:02:19.575Z,97.1708
2023-04-16T02:03:20.419Z,97.3495
2023-04-16T02:04:21.144Z,97.2857
2023-04-16T06:48:58.668Z,97.1749
2023-04-16T06:49:52.696Z,98.1123
2023-04-16T06:50:53.493Z,98.0516
2023-04-16T06:51:54.167Z,98.1384
2023-04-16T06:52:54.856Z,98.2746
2023-04-16T06:53:55.659Z,98.2554
2023-04-16T06:54:56.407Z,98.2584
2023-04-16T06:55:57.227Z,98.2460
2023-04-16T06:56:58.150Z,98.2822
2023-04-16T06:57:58.771Z,98.2975
2023-04-16T06:58:59.452Z,98.2247
2023-04-16T07:00:00.243Z,98.4188
2023-04-16T07:01:00.995Z,98.5304
2023-04-16T07:02:01.873Z,98.6256
2023-04-16T07:03:03.130Z,98.6420
2023-04-16T07:04:04.041Z,98.6572
2023-04-16T07:05:04.852Z,98.5280
2023-04-16T07:06:05.532Z,98.4479
2023-04-16T07:07:06.238Z,98.4286
2023-04-16T07:08:06.951Z,98.1718
2023-04-16T07:09:07.788Z,98.0922
2023-04-16T07:10:08.555Z,98.0332
2023-04-16T07:11:09.262Z,97.9412
2023-04-16T07:12:09.933Z,98.1090
2023-04-16T07:13:10.864Z,98.1962
2023-04-16T07:14:11.746Z,98.2861
2023-04-16T07:15:12.418Z,98.0862
2023-04-16T07:16:13.469Z,98.0387
2023-04-16T07:17:14.145Z,97.9720
2023-04-16T07:18:14.848Z,97.8521
2023-04-16T07:19:15.547Z,97.9810
2023-04-16T07:20:16.262Z,98.0591
2023-04-16T07:21:17.478Z,98.2273
2023-04-16T07:22:18.114Z,98.1044
2023-04-16T07:23:18.820Z,97.9555
2023-04-16T07:24:19.570Z,97.9915
2023-04-16T07:25:20.252Z,98.0975
2023-04-16T07:26:20.929Z,98.0899
2023-04-16T07:27:21.751Z,97.7706
2023-04-16T07:28:22.410Z,97.5285
2023-04-16T07:29:23.290Z,97.5695
2023-04-16T07:30:24.098Z,97.4919
2023-04-16T07:31:24.835Z,97.4125
2023-04-16T07:32:25.626Z,97.6311
2023-04-16T07:33:26.559Z,97.5853
2023-04-16T07:34:27.293Z,97.6160
2023-04-16T07:35:27.982Z,97.5932
2023-04-16T07:36:28.646Z,97.6881
2023-04-16T07:37:29.369Z,97.8775
2023-04-16T07:38:30.026Z,97.9458
2023-04-16T07:39:30.717Z,97.9238
2023-04-16T07:40:31.427Z,97.6620
2023-04-16T07:41:32.367Z,97.4394
2023-04-16T07:42:33.035Z,97.1986
2023-04-16T07:47:58.135Z,97.2314
2023-04-16T07:48:51.853Z,96.5245
2023-04-16T07:49:52.769Z,96.1654
2023-04-16T07:50:53.455Z,96.3257
2023-04-16T07:51:54.381Z,96.5063
2023-04-16T07:52:55.242Z,96.3442
2023-04-16T07:53:56.000Z,96.5864
2023-04-16T07:54:56.859Z,96.5500
2023-04-16T07:55:57.732Z,96.6041
2023-04-16T07:56:58.478Z,96.8064
2023-04-16T07:57:59.689Z,96.9379
2023-04-16T07:59:07.833Z,97.1280
2023-04-16T08:00:03.738Z,97.0759
2023-04-16T08:01:04.420Z,96.8573
2023-04-16T08:02:05.186Z,97.1537
2023-04-16T08:03:06.011Z,97.2747
2023-04-16T08:04:07.087Z,96.7829
2023-04-16T08:05:07.865Z,96.7151
2023-04-16T08:06:08.568Z,96.9341
2023-04-16T08:07:09.241Z,96.9007
2023-04-16T08:08:11.457Z,96.8507
2023-04-16T08:09:12.294Z,96.8331
2023-04-16T08:10:13.043Z,97.1122
2023-04-16T08:11:13.848Z,96.9243
2023-04-16T08:12:14.546Z,96.9100
2023-04-16T08:18:09.950Z,96.8966
2023-04-16T08:19:10.970Z,96.6581
2023-04-16T08:20:15.060Z,96.2237
2023-04-16T08:21:15.328Z,96.3728
2023-04-16T08:22:16.305Z,96.6155
2023-04-16T08:23:17.208Z,96.7590
2023-04-16T08:24:17.918Z,96.4536
2023-04-16T08:25:18.605Z,96.5283
2023-04-16T08:26:19.561Z,96.3286
2023-04-16T08:27:20.502Z,96.0615
2023-04-16T08:28:21.230Z,96.5003
2023-04-16T08:29:22.388Z,96.2624
2023-04-16T08:30:23.064Z,96.2307
2023-04-16T08:31:23.836Z,96.3249
2023-04-16T08:32:24.637Z,96.4737
2023-04-16T08:33:25.636Z,96.4764
2023-04-16T08:34:26.368Z,96.3465
2023-04-16T08:35:27.112Z,96.7143
2023-04-16T08:36:27.853Z,96.6808
2023-04-16T08:37:28.542Z,96.5795
2023-04-16T08:38:29.505Z,96.2284
2023-04-16T08:39:30.183Z,96.4430
2023-04-16T08:40:30.950Z,96.6690
2023-04-16T08:41:31.648Z,96.7375
2023-04-16T08:42:32.394Z,96.2667
2023-04-16T08:43:33.093Z,96.4333
2023-04-16T08:44:33.808Z,96.6287
2023-04-16T08:45:34.565Z,96.5615
2023-04-16T08:46:35.311Z,96.2324
2023-04-16T08:47:36.019Z,95.2276
2023-04-16T08:48:36.727Z,95.2969
2023-04-16T08:49:37.434Z,95.0616
2023-04-16T08:50:38.406Z,95.2236
2023-04-16T08:51:39.225Z,95.2641
2023-04-16T08:52:39.912Z,95.4849
2023-04-16T08:53:40.738Z,95.9549
2023-04-16T08:54:41.496Z,95.3670
2023-04-16T08:55:42.289Z,95.5220
2023-04-16T11:00:38.375Z,95.6820
2023-04-16T11:26:09.643Z,95.4849
2023-04-16T11:41:49.429Z,94.6288
2023-04-16T11:42:20.271Z,95.0423
2023-04-16T11:43:21.076Z,95.7217
2023-04-16T11:44:21.949Z,95.7027
2023-04-16T11:45:22.931Z,95.7185
2023-04-16T11:46:27.841Z,96.1357
2023-04-16T11:47:25.994Z,96.2974
2023-04-16T11:48:26.917Z,96.2643
2023-04-16T11:49:27.715Z,96.5103
2023-04-16T11:50:28.533Z,96.6684
2023-04-16T11:51:29.368Z,96.5830
2023-04-16T11:52:30.239Z,96.3237
2023-04-16T11:53:31.052Z,96.0617
2023-04-16T11:54:31.819Z,96.2452
2023-04-16T11:55:32.623Z,96.4335
2023-04-16T11:56:33.469Z,96.6877
2023-04-16T11:57:35.782Z,96.0878
2023-04-16T11:58:36.821Z,95.9235
2023-04-16T11:59:36.751Z,96.3507
2023-04-16T12:00:38.351Z,96.2996
2023-04-16T12:01:40.777Z,96.1418
2023-04-16T12:02:43.403Z,95.6397
2023-04-16T12:03:46.066Z,95.4732
2023-04-16T12:42:25.168Z,95.1865
2023-04-16T13:08:26.719Z,94.2214
2023-04-16T13:08:57.038Z,93.5531
2023-04-16T13:09:57.797Z,94.3478
2023-04-16T13:10:58.601Z,95.1068
2023-04-16T13:11:59.401Z,95.9333
2023-04-16T13:13:00.258Z,95.8962
2023-04-16T13:14:01.086Z,95.3390
2023-04-16T13:15:02.193Z,94.7500
2023-04-16T13:16:02.973Z,94.1236
2023-04-16T13:17:03.769Z,94.4735
2023-04-16T13:18:04.642Z,94.3073
2023-04-16T13:19:05.440Z,94.4779
2023-04-16T13:20:06.205Z,93.7924
2023-04-16T13:21:07.003Z,94.5306
2023-04-16T13:22:08.589Z,94.8092
2023-04-16T13:23:09.367Z,94.5575
2023-04-16T13:24:10.123Z,94.5967
2023-04-16T13:25:10.873Z,95.4906
2023-04-16T13:26:11.597Z,94.6944
2023-04-16T13:27:12.364Z,94.9065
2023-04-16T13:28:13.106Z,95.1754
2023-04-16T13:29:13.853Z,95.5470
2023-04-16T13:30:14.587Z,94.7631
2023-04-16T13:31:15.388Z,93.8092
2023-04-16T13:32:16.113Z,94.5034
2023-04-16T13:33:16.978Z,94.7504
2023-04-16T13:34:17.719Z,94.9529
2023-04-16T13:35:18.445Z,94.0172
2023-04-16T13:36:19.220Z,93.1509
2023-04-16T13:37:19.951Z,93.7443
2023-04-16T13:38:20.719Z,94.0781
2023-04-16T13:39:21.617Z,93.3706
2023-04-16T13:40:22.295Z,93.2702
2023-04-16T13:41:23.066Z,93.6031
2023-04-16T13:42:24.142Z,93.7122
2023-04-16T13:43:24.909Z,94.0590
2023-04-16T13:44:25.656Z,94.0411
2023-04-16T13:45:26.414Z,93.9720
2023-04-16T13:46:27.147Z,92.9648
2023-04-16T13:47:27.889Z,92.8889
2023-04-16T13:48:28.688Z,92.5981
2023-04-16T13:49:29.743Z,92.8830
2023-04-16T13:50:30.555Z,93.4025
2023-04-16T13:51:32.132Z,93.2613
2023-04-16T13:52:32.929Z,93.7336
2023-04-16T13:53:33.745Z,93.9415
2023-04-16T13:54:34.737Z,94.0837
2023-04-16T13:55:35.605Z,93.2228
2023-04-16T13:56:36.405Z,93.8675
2023-04-16T13:57:37.198Z,94.4064
2023-04-16T13:58:38.570Z,94.5353
2023-04-16T13:59:40.573Z,93.4722
2023-04-16T14:00:41.413Z,93.5905
2023-04-16T14:01:42.218Z,94.1551
2023-04-16T14:02:43.176Z,94.0470
2023-04-16T14:03:44.364Z,93.5847
2023-04-16T14:04:45.555Z,94.0011
2023-04-16T14:05:47.133Z,94.2624
2023-04-16T14:06:48.508Z,94.5090
2023-04-16T14:07:49.567Z,94.2223
2023-04-16T14:08:50.383Z,94.7662
2023-04-16T14:09:51.156Z,94.8691
2023-04-16T14:10:52.638Z,94.8723
2023-04-16T14:11:54.656Z,94.5402
2023-04-16T14:12:55.391Z,94.8428
2023-04-16T14:13:56.234Z,94.1609
2023-04-16T14:14:57.009Z,94.7519
2023-04-16T14:15:57.869Z,94.3706
2023-04-16T14:16:59.669Z,94.5226
2023-04-16T14:18:00.660Z,94.3064
2023-04-16T14:19:01.571Z,94.2171
2023-04-16T14:20:03.025Z,94.0821
2023-04-16T14:21:03.736Z,94.6562
2023-04-16T14:22:04.576Z,94.5896
2023-04-16T14:23:05.305Z,94.8082
2023-04-16T14:24:06.063Z,95.0105
2023-04-16T14:25:06.815Z,95.0514
2023-04-16T14:26:07.641Z,95.7940
2023-04-16T14:27:08.507Z,95.4163
2023-04-16T14:28:09.298Z,95.1847
2023-04-16T14:29:10.741Z,95.5511
2023-04-16T14:30:11.638Z,95.4904
2023-04-16T14:31:12.520Z,95.5671
2023-04-16T14:32:13.775Z,95.7626
2023-04-16T14:33:14.540Z,95.7366
2023-04-16T14:34:15.553Z,95.7815
2023-04-16T14:35:16.300Z,96.0625
2023-04-16T14:36:17.233Z,95.6917
2023-04-16T14:37:17.983Z,95.7217
2023-04-16T14:38:18.850Z,96.1785
2023-04-16T14:39:19.647Z,95.8529
2023-04-16T14:40:20.615Z,95.9962
2023-04-16T14:41:21.466Z,95.9019
2023-04-16T14:42:22.257Z,95.5140
2023-04-16T14:43:23.554Z,95.6644
2023-04-16T14:44:25.087Z,95.6208
2023-04-16T14:45:25.886Z,95.2151
2023-04-16T14:46:26.655Z,95.7085
2023-04-16T14:47:27.413Z,95.9130
2023-04-16T14:48:28.235Z,95.5028
2023-04-16T14:49:29.079Z,95.1640
2023-04-16T14:50:30.117Z,94.2116
2023-04-16T14:51:30.919Z,94.6725
2023-04-16T14:52:31.774Z,95.1511
2023-04-16T14:53:32.694Z,95.6646
2023-04-16T14:54:33.544Z,95.4468
2023-04-16T14:55:34.383Z,94.9604
2023-04-16T14:56:35.405Z,95.4091
2023-04-16T14:57:36.239Z,95.2390
2023-04-16T14:58:38.647Z,94.9320
2023-04-16T14:59:40.689Z,95.2843
2023-04-16T15:00:41.561Z,95.5606
2023-04-16T15:01:42.397Z,94.5748
2023-04-16T15:02:43.371Z,94.3876
2023-04-16T15:03:45.732Z,95.3476
2023-04-16T15:04:47.842Z,95.0344
2023-04-16T15:05:49.702Z,94.5741
2023-04-16T15:06:55.515Z,94.2505
